createdAt,value
2022-12-03T00:02:14.150Z,94258.69
2022-12-03T00:04:40.613Z,94262.53
2022-12-03T00:07:07.011Z,94263.09
2022-12-03T00:09:33.467Z,94264.56
2022-12-03T00:11:59.906Z,94264.88
2022-12-03T00:14:26.335Z,94255.00
2022-12-03T00:16:52.777Z,94255.97
2022-12-03T00:19:19.178Z,94255.97
2022-12-03T00:21:45.606Z,94264.22
2022-12-03T00:24:12.044Z,94268.50
2022-12-03T00:26:38.519Z,94275.72
2022-12-03T00:29:04.940Z,94282.25
2022-12-03T00:31:31.422Z,94288.31
2022-12-03T00:33:57.986Z,94284.88
2022-12-03T00:36:24.384Z,94292.03
2022-12-03T00:38:50.856Z,94280.34
2022-12-03T00:41:17.271Z,94288.31
2022-12-03T00:43:43.723Z,94280.91
2022-12-03T00:46:10.301Z,94285.31
2022-12-03T00:48:36.733Z,94281.03
2022-12-03T00:51:03.182Z,94282.44
2022-12-03T00:53:29.620Z,94276.25
2022-12-03T00:55:56.031Z,94277.09
2022-12-03T00:58:22.470Z,94276.66
2022-12-03T01:00:48.893Z,94267.75
2022-12-03T01:03:15.322Z,94281.34
2022-12-03T01:05:41.775Z,94284.91
2022-12-03T01:08:08.306Z,94286.56
2022-12-03T01:10:34.736Z,94281.91
2022-12-03T01:13:01.176Z,94282.03
2022-12-03T01:15:27.609Z,94277.91
2022-12-03T01:17:54.041Z,94280.75
2022-12-03T01:20:20.483Z,94283.81
2022-12-03T01:22:46.923Z,94285.19
2022-12-03T01:25:13.375Z,94280.25
2022-12-03T01:27:39.799Z,94283.13
2022-12-03T01:30:06.255Z,94290.00
2022-12-03T01:32:32.691Z,94288.22
2022-12-03T01:34:59.093Z,94282.88
2022-12-03T01:37:25.563Z,94285.06
2022-12-03T01:39:52.033Z,94276.13
2022-12-03T01:42:18.490Z,94276.81
2022-12-03T01:44:44.950Z,94273.09
2022-12-03T01:47:11.391Z,94276.78
2022-12-03T01:49:37.844Z,94277.91
2022-12-03T01:52:04.267Z,94278.75
2022-12-03T01:54:30.686Z,94280.66
2022-12-03T01:56:57.109Z,94288.19
2022-12-03T01:59:23.533Z,94276.94
2022-12-03T02:01:50.000Z,94269.53
2022-12-03T02:04:16.604Z,94280.38
2022-12-03T02:06:43.087Z,94275.16
2022-12-03T02:09:09.533Z,94277.22
2022-12-03T02:11:35.957Z,94276.97
2022-12-03T02:14:02.383Z,94271.47
2022-12-03T02:16:28.947Z,94270.91
2022-12-03T02:18:55.440Z,94270.47
2022-12-03T02:21:21.863Z,94262.25
2022-12-03T02:23:48.291Z,94265.09
2022-12-03T02:26:14.713Z,94267.03
2022-12-03T02:28:41.145Z,94259.47
2022-12-03T02:31:07.613Z,94263.72
2022-12-03T02:33:34.051Z,94260.16
2022-12-03T02:36:03.536Z,94267.28
2022-12-03T02:38:30.421Z,94270.59
2022-12-03T02:40:56.897Z,94260.72
2022-12-03T02:43:23.310Z,94262.13
2022-12-03T02:45:49.765Z,94265.81
2022-12-03T02:48:16.222Z,94271.16
2022-12-03T02:50:42.663Z,94275.97
2022-12-03T02:53:09.103Z,94276.41
2022-12-03T02:55:37.368Z,94279.13
2022-12-03T02:58:03.970Z,94287.09
2022-12-03T03:00:30.431Z,94293.00
2022-12-03T03:02:56.948Z,94293.69
2022-12-03T03:05:23.381Z,94299.59
2022-12-03T03:07:49.873Z,94298.75
2022-12-03T03:10:16.375Z,94298.91
2022-12-03T03:12:42.853Z,94296.84
2022-12-03T03:15:09.298Z,94294.13
2022-12-03T03:17:35.722Z,94286.25
2022-12-03T03:20:02.182Z,94278.19
2022-12-03T03:22:28.594Z,94274.34
2022-12-03T03:24:55.169Z,94270.75
2022-12-03T03:27:21.968Z,94269.66
2022-12-03T03:29:48.365Z,94266.50
2022-12-03T03:32:14.798Z,94277.09
2022-12-03T03:34:41.248Z,94275.16
2022-12-03T03:37:07.713Z,94276.38
2022-12-03T03:39:34.166Z,94284.09
2022-12-03T03:42:00.613Z,94286.84
2022-12-03T03:44:27.038Z,94286.97
2022-12-03T03:46:53.472Z,94288.59
2022-12-03T03:49:19.908Z,94291.78
2022-12-03T03:51:46.370Z,94294.09
2022-12-03T03:54:12.795Z,94292.88
2022-12-03T03:56:39.242Z,94293.53
2022-12-03T03:59:05.686Z,94283.78
2022-12-03T04:01:32.231Z,94285.56
2022-12-03T04:03:58.850Z,94283.09
2022-12-03T04:06:25.296Z,94277.88
2022-12-03T04:08:51.711Z,94278.44
2022-12-03T04:11:18.129Z,94275.00
2022-12-03T04:13:44.544Z,94275.66
2022-12-03T04:16:11.029Z,94269.06
2022-12-03T04:18:37.476Z,94259.88
2022-12-03T04:21:04.010Z,94262.50
2022-12-03T04:23:31.137Z,94261.53
2022-12-03T04:25:57.660Z,94269.53
2022-12-03T04:28:24.090Z,94268.00
2022-12-03T04:30:50.559Z,94269.78
2022-12-03T04:33:17.047Z,94256.59
2022-12-03T04:35:43.550Z,94257.84
2022-12-03T04:38:10.006Z,94258.13
2022-12-03T04:40:36.454Z,94276.53
2022-12-03T04:43:02.868Z,94273.09
2022-12-03T04:45:29.260Z,94275.44
2022-12-03T04:47:55.728Z,94272.13
2022-12-03T04:50:22.170Z,94277.22
2022-12-03T04:52:48.588Z,94275.56
2022-12-03T04:55:15.033Z,94270.63
2022-12-03T04:57:41.466Z,94273.38
2022-12-03T05:00:07.916Z,94291.09
2022-12-03T05:02:34.419Z,94288.09
2022-12-03T05:05:00.922Z,94292.75
2022-12-03T05:07:27.437Z,94285.88
2022-12-03T05:09:53.854Z,94286.56
2022-12-03T05:12:20.260Z,94285.88
2022-12-03T05:14:46.708Z,94282.44
2022-12-03T05:17:13.161Z,94284.75
2022-12-03T05:19:39.647Z,94285.47
2022-12-03T05:22:06.062Z,94282.03
2022-12-03T05:24:32.484Z,94286.41
2022-12-03T05:26:58.906Z,94280.38
2022-12-03T05:29:25.318Z,94283.13
2022-12-03T05:31:51.750Z,94284.91
2022-12-03T05:34:18.187Z,94274.47
2022-12-03T05:36:44.597Z,94271.72
2022-12-03T05:39:11.034Z,94265.81
2022-12-03T05:41:37.471Z,94266.06
2022-12-03T05:44:03.906Z,94257.31
2022-12-03T05:46:30.381Z,94258.69
2022-12-03T05:48:56.875Z,94256.34
2022-12-03T05:51:23.294Z,94257.16
2022-12-03T05:53:49.751Z,94252.50
2022-12-03T05:56:16.232Z,94264.72
2022-12-03T05:58:42.634Z,94262.41
2022-12-03T06:01:09.103Z,94258.78
2022-12-03T06:03:35.632Z,94268.00
2022-12-03T06:06:02.181Z,94257.28
2022-12-03T06:08:28.601Z,94245.22
2022-12-03T06:10:55.018Z,94257.19
2022-12-03T06:13:21.520Z,94250.00
2022-12-03T06:15:48.003Z,94251.41
2022-12-03T06:18:14.455Z,94256.63
2022-12-03T06:20:40.975Z,94251.25
2022-12-03T06:23:07.396Z,94253.59
2022-12-03T06:25:33.804Z,94250.28
2022-12-03T06:28:00.267Z,94246.72
2022-12-03T06:30:26.702Z,94244.13
2022-12-03T06:32:53.106Z,94242.72
2022-12-03T06:35:19.537Z,94243.13
2022-12-03T06:37:45.972Z,94248.25
2022-12-03T06:40:12.391Z,94256.59
2022-12-03T06:42:38.850Z,94258.25
2022-12-03T06:45:05.283Z,94268.56
2022-12-03T06:47:31.742Z,94255.38
2022-12-03T06:49:58.186Z,94253.88
2022-12-03T06:52:24.599Z,94258.66
2022-12-03T06:54:51.233Z,94257.44
2022-12-03T06:57:17.756Z,94258.25
2022-12-03T06:59:44.205Z,94266.50
2022-12-03T07:02:10.683Z,94269.69
2022-12-03T07:04:38.387Z,94269.91
2022-12-03T07:07:07.373Z,94268.53
2022-12-03T07:09:33.802Z,94270.91
2022-12-03T07:12:00.231Z,94280.81
2022-12-03T07:14:26.686Z,94272.81
2022-12-03T07:16:53.143Z,94264.44
2022-12-03T07:19:19.591Z,94264.84
2022-12-03T07:21:46.029Z,94270.63
2022-12-03T07:24:12.489Z,94262.50
2022-12-03T07:26:38.942Z,94271.19
2022-12-03T07:29:05.365Z,94273.66
2022-12-03T07:31:31.956Z,94269.53
2022-12-03T07:33:58.402Z,94270.63
2022-12-03T07:36:24.816Z,94275.03
2022-12-03T07:38:51.303Z,94270.75
2022-12-03T07:41:17.743Z,94266.91
2022-12-03T07:43:44.168Z,94272.94
2022-12-03T07:46:10.625Z,94266.78
2022-12-03T07:48:37.064Z,94270.50
2022-12-03T07:51:03.500Z,94270.22
2022-12-03T07:53:29.928Z,94267.06
2022-12-03T07:55:56.371Z,94278.06
2022-12-03T07:58:22.831Z,94262.66
2022-12-03T08:00:49.348Z,94262.09
2022-12-03T08:03:15.803Z,94252.50
2022-12-03T08:05:42.205Z,94258.66
2022-12-03T08:08:08.644Z,94262.09
2022-12-03T08:10:35.107Z,94259.78
2022-12-03T08:13:01.559Z,94266.50
2022-12-03T08:15:30.198Z,94264.03
2022-12-03T08:18:00.213Z,94260.84
2022-12-03T08:20:26.661Z,94259.63
2022-12-03T08:22:53.086Z,94256.19
2022-12-03T08:25:19.494Z,94264.44
2022-12-03T08:27:45.923Z,94261.94
2022-12-03T08:30:12.360Z,94261.53
2022-12-03T08:32:38.784Z,94256.72
2022-12-03T08:35:05.200Z,94261.09
2022-12-03T08:37:31.654Z,94260.97
2022-12-03T08:39:58.081Z,94260.97
2022-12-03T08:42:24.497Z,94259.19
2022-12-03T08:44:51.065Z,94254.38
2022-12-03T08:47:17.567Z,94249.97
2022-12-03T08:49:44.007Z,94252.72
2022-12-03T08:52:10.466Z,94252.97
2022-12-03T08:54:36.881Z,94252.72
2022-12-03T08:57:03.291Z,94245.56
2022-12-03T08:59:29.718Z,94246.41
2022-12-03T09:01:56.138Z,94238.78
2022-12-03T09:04:22.692Z,94245.69
2022-12-03T09:06:49.198Z,94251.63
2022-12-03T09:09:15.605Z,94247.88
2022-12-03T09:11:42.058Z,94239.63
2022-12-03T09:14:09.800Z,94243.50
2022-12-03T09:16:39.055Z,94242.38
2022-12-03T09:19:05.587Z,94256.56
2022-12-03T09:21:32.024Z,94258.06
2022-12-03T09:23:58.465Z,94262.59
2022-12-03T09:26:24.867Z,94252.72
2022-12-03T09:28:51.318Z,94250.63
2022-12-03T09:31:17.780Z,94252.41
2022-12-03T09:33:44.342Z,94253.81
2022-12-03T09:36:10.772Z,94238.44
2022-12-03T09:38:37.226Z,94240.78
2022-12-03T09:41:03.703Z,94245.03
2022-12-03T09:43:49.547Z,94237.88
2022-12-03T09:46:17.002Z,94246.78
2022-12-03T09:48:43.511Z,94239.91
2022-12-03T09:51:09.983Z,94241.41
2022-12-03T09:53:41.053Z,94239.31
2022-12-03T09:56:07.908Z,94234.38
2022-12-03T09:58:35.095Z,94230.00
2022-12-03T10:01:01.700Z,94226.56
2022-12-03T10:03:29.996Z,94223.25
2022-12-03T10:05:56.638Z,94225.41
2022-12-03T10:08:24.503Z,94225.56
2022-12-03T10:10:52.494Z,94212.50
2022-12-03T10:13:25.319Z,94215.94
2022-12-03T10:15:52.149Z,94216.75
2022-12-03T10:18:18.571Z,94222.94
2022-12-03T10:20:45.019Z,94227.91
2022-12-03T10:23:11.443Z,94214.28
2022-12-03T10:25:37.921Z,94216.75
2022-12-03T10:28:04.355Z,94216.88
2022-12-03T10:30:30.923Z,94221.84
2022-12-03T10:32:57.403Z,94219.38
2022-12-03T10:35:23.867Z,94217.72
2022-12-03T10:37:50.296Z,94217.56
2022-12-03T10:40:16.742Z,94212.50
2022-12-03T10:42:43.208Z,94215.41
2022-12-03T10:45:09.631Z,94206.72
2022-12-03T10:47:36.291Z,94211.56
2022-12-03T10:50:02.820Z,94198.19
2022-12-03T10:52:29.258Z,94199.47
2022-12-03T10:54:56.067Z,94205.91
2022-12-03T10:57:22.684Z,94201.63
2022-12-03T10:59:49.119Z,94200.69
2022-12-03T11:02:15.574Z,94202.41
2022-12-03T11:04:41.995Z,94204.47
2022-12-03T11:07:08.432Z,94196.09
2022-12-03T11:09:34.882Z,94186.31
2022-12-03T11:12:01.367Z,94179.88
2022-12-03T11:14:27.772Z,94175.47
2022-12-03T11:16:56.550Z,94175.03
2022-12-03T11:19:28.790Z,94168.13
2022-12-03T11:21:55.215Z,94165.78
2022-12-03T11:24:21.634Z,94161.09
2022-12-03T11:26:48.052Z,94164.00
2022-12-03T11:29:14.460Z,94157.28
2022-12-03T11:31:40.949Z,94154.66
2022-12-03T11:34:07.460Z,94149.13
2022-12-03T11:37:00.515Z,94146.13
2022-12-03T11:39:20.453Z,94140.25
2022-12-03T11:41:46.871Z,94139.25
2022-12-03T11:44:13.280Z,94139.63
2022-12-03T11:46:39.772Z,94131.28
2022-12-03T11:49:06.266Z,94129.13
2022-12-03T11:51:32.729Z,94139.69
2022-12-03T11:53:59.142Z,94139.44
2022-12-03T11:56:25.559Z,94140.91
2022-12-03T11:58:51.982Z,94126.06
2022-12-03T12:01:18.429Z,94133.91
2022-12-03T12:03:45.038Z,94130.19
2022-12-03T12:06:11.564Z,94129.50
2022-12-03T12:08:38.027Z,94120.38
2022-12-03T12:11:04.439Z,94132.22
2022-12-03T12:13:30.862Z,94124.38
2022-12-03T12:15:57.332Z,94127.25
2022-12-03T12:18:23.772Z,94117.19
2022-12-03T12:20:50.213Z,94110.88
2022-12-03T12:23:16.621Z,94111.72
2022-12-03T12:25:43.035Z,94116.53
2022-12-03T12:28:09.504Z,94113.22
2022-12-03T12:30:35.942Z,94113.22
2022-12-03T12:33:02.378Z,94124.38
2022-12-03T12:35:28.811Z,94132.03
2022-12-03T12:37:59.536Z,94125.41
2022-12-03T12:40:26.901Z,94119.28
2022-12-03T12:42:53.334Z,94112.13
2022-12-03T12:45:19.773Z,94112.91
2022-12-03T12:47:46.292Z,94110.31
2022-12-03T12:50:12.776Z,94111.50
2022-12-03T12:52:39.284Z,94113.75
2022-12-03T12:55:05.730Z,94115.53
2022-12-03T12:57:32.183Z,94114.28
2022-12-03T12:59:58.615Z,94118.84
2022-12-03T13:02:25.121Z,94109.06
2022-12-03T13:04:51.583Z,94109.22
2022-12-03T13:07:18.012Z,94109.88
2022-12-03T13:09:44.461Z,94108.53
2022-12-03T13:12:10.898Z,94106.59
2022-12-03T13:14:37.324Z,94112.53
2022-12-03T13:17:03.762Z,94095.38
2022-12-03T13:19:30.195Z,94086.16
2022-12-03T13:21:56.606Z,94080.94
2022-12-03T13:24:23.082Z,94067.22
2022-12-03T13:26:49.526Z,94080.41
2022-12-03T13:29:15.965Z,94087.44
2022-12-03T13:31:44.318Z,94091.19
2022-12-03T13:34:10.917Z,94090.19
2022-12-03T13:36:37.328Z,94077.44
2022-12-03T13:39:03.770Z,94082.28
2022-12-03T13:41:30.204Z,94074.56
2022-12-03T13:43:56.673Z,94058.38
2022-12-03T13:46:23.257Z,94057.69
2022-12-03T13:48:49.776Z,94055.66
2022-12-03T13:51:16.175Z,94059.25
2022-12-03T13:53:43.016Z,94062.16
2022-12-03T13:56:09.466Z,94065.47
2022-12-03T13:58:35.938Z,94058.13
2022-12-03T14:01:02.518Z,94058.81
2022-12-03T14:03:28.978Z,94066.81
2022-12-03T14:05:55.411Z,94065.97
2022-12-03T14:08:21.942Z,94053.00
2022-12-03T14:10:48.435Z,94053.59
2022-12-03T14:13:14.822Z,94060.44
2022-12-03T14:15:41.238Z,94056.72
2022-12-03T14:18:07.671Z,94055.91
2022-12-03T14:20:34.069Z,94060.16
2022-12-03T14:23:00.487Z,94061.13
2022-12-03T14:25:26.960Z,94059.88
2022-12-03T14:27:53.398Z,94068.84
2022-12-03T14:30:19.845Z,94067.19
2022-12-03T14:32:46.275Z,94071.59
2022-12-03T14:35:12.669Z,94068.28
2022-12-03T14:37:39.082Z,94075.31
2022-12-03T14:40:05.502Z,94067.19
2022-12-03T14:42:31.987Z,94068.84
2022-12-03T14:44:58.413Z,94078.31
2022-12-03T14:47:24.844Z,94079.56
2022-12-03T14:49:51.711Z,94077.63
2022-12-03T14:52:18.379Z,94080.94
2022-12-03T14:54:44.817Z,94071.59
2022-12-03T14:57:11.244Z,94071.44
2022-12-03T14:59:37.684Z,94072.28
2022-12-03T15:02:04.251Z,94068.84
2022-12-03T15:04:30.711Z,94079.28
2022-12-03T15:06:57.163Z,94064.56
2022-12-03T15:09:38.671Z,94057.19
2022-12-03T15:12:05.089Z,94058.72
2022-12-03T15:14:31.569Z,94065.72
2022-12-03T15:16:58.119Z,94060.50
2022-12-03T15:19:24.650Z,94063.81
2022-12-03T15:21:51.078Z,94064.47
2022-12-03T15:24:17.552Z,94053.88
2022-12-03T15:26:44.011Z,94055.16
2022-12-03T15:29:10.569Z,94048.13
2022-12-03T15:31:37.053Z,94046.03
2022-12-03T15:34:03.522Z,94028.66
2022-12-03T15:36:29.937Z,94040.50
2022-12-03T15:38:56.378Z,94043.09
2022-12-03T15:41:22.852Z,94047.19
2022-12-03T15:43:49.286Z,94043.94
2022-12-03T15:46:15.766Z,94049.97
2022-12-03T15:48:42.247Z,94051.59
2022-12-03T15:51:08.682Z,94041.00
2022-12-03T15:53:35.099Z,94041.47
2022-12-03T15:56:01.546Z,94044.31
2022-12-03T15:58:28.019Z,94042.28
2022-12-03T16:00:54.467Z,94045.59
2022-12-03T16:03:20.965Z,94047.13
2022-12-03T16:05:47.448Z,94047.50
2022-12-03T16:08:13.895Z,94050.25
2022-12-03T16:10:40.348Z,94046.16
2022-12-03T16:13:06.781Z,94044.59
2022-12-03T16:15:33.258Z,94048.16
2022-12-03T16:17:59.704Z,94055.84
2022-12-03T16:20:26.120Z,94052.03
2022-12-03T16:22:52.513Z,94050.44
2022-12-03T16:25:18.941Z,94056.50
2022-12-03T16:27:45.394Z,94064.84
2022-12-03T16:30:11.800Z,94061.56
2022-12-03T16:32:38.232Z,94066.81
2022-12-03T16:35:04.632Z,94057.59
2022-12-03T16:37:31.038Z,94057.84
2022-12-03T16:39:57.598Z,94059.16
2022-12-03T16:42:24.158Z,94051.47
2022-12-03T16:44:50.603Z,94055.41
2022-12-03T16:47:17.023Z,94053.38
2022-12-03T16:49:43.458Z,94058.28
2022-12-03T16:52:09.904Z,94048.22
2022-12-03T16:54:36.318Z,94042.34
2022-12-03T16:57:02.765Z,94044.41
2022-12-03T16:59:29.234Z,94051.84
2022-12-03T17:01:55.735Z,94038.66
2022-12-03T17:04:22.224Z,94036.13
2022-12-03T17:06:48.636Z,94050.63
2022-12-03T17:09:15.175Z,94050.38
2022-12-03T17:11:41.629Z,94047.75
2022-12-03T17:14:08.036Z,94042.09
2022-12-03T17:16:34.500Z,94036.69
2022-12-03T17:19:00.965Z,94039.91
2022-12-03T17:21:30.868Z,94036.75
2022-12-03T17:24:00.131Z,94040.88
2022-12-03T17:26:26.580Z,94037.19
2022-12-03T17:28:53.005Z,94049.94
2022-12-03T17:31:19.506Z,94048.09
2022-12-03T17:33:46.002Z,94048.41
2022-12-03T17:36:12.444Z,94044.97
2022-12-03T17:38:39.585Z,94046.94
2022-12-03T17:41:06.065Z,94048.41
2022-12-03T17:43:32.467Z,94048.03
2022-12-03T17:45:58.923Z,94039.38
2022-12-03T17:48:25.393Z,94025.22
2022-12-03T17:50:51.842Z,94024.00
2022-12-03T17:53:18.278Z,94015.34
2022-12-03T17:55:45.344Z,94026.06
2022-12-03T17:58:11.818Z,94025.03
2022-12-03T18:00:38.370Z,94022.84
2022-12-03T18:03:04.778Z,94025.50
2022-12-03T18:05:31.196Z,94028.78
2022-12-03T18:07:57.792Z,94024.66
2022-12-03T18:10:24.329Z,94032.59
2022-12-03T18:12:50.738Z,94032.09
2022-12-03T18:15:17.153Z,94037.69
2022-12-03T18:17:43.687Z,94036.81
2022-12-03T18:20:10.093Z,94037.38
2022-12-03T18:22:36.518Z,94041.78
2022-12-03T18:25:02.956Z,94036.69
2022-12-03T18:27:29.384Z,94035.22
2022-12-03T18:29:56.179Z,94032.47
2022-12-03T18:32:30.313Z,94039.31
2022-12-03T18:34:56.888Z,94041.66
2022-12-03T18:37:23.319Z,94028.06
2022-12-03T18:39:49.719Z,94023.69
2022-12-03T18:42:16.146Z,94028.66
2022-12-03T18:44:47.907Z,94020.50
2022-12-03T18:47:16.084Z,94022.53
2022-12-03T18:49:42.563Z,94022.94
2022-12-03T18:52:08.981Z,94024.28
2022-12-03T18:54:35.420Z,94023.63
2022-12-03T18:57:01.864Z,94026.50
2022-12-03T18:59:28.282Z,94031.91
2022-12-03T19:01:54.750Z,94034.31
2022-12-03T19:04:21.228Z,94034.88
2022-12-03T19:06:47.658Z,94023.19
2022-12-03T19:09:14.141Z,94038.91
2022-12-03T19:11:40.569Z,94030.00
2022-12-03T19:14:06.984Z,94020.00
2022-12-03T19:16:33.588Z,94019.59
2022-12-03T19:19:00.043Z,94018.72
2022-12-03T19:21:30.712Z,94017.09
2022-12-03T19:24:23.256Z,94023.31
2022-12-03T19:26:46.338Z,93995.28
2022-12-03T19:29:12.773Z,94013.41
2022-12-03T19:31:39.279Z,94013.38
2022-12-03T19:34:05.727Z,94023.69
2022-12-03T19:36:32.151Z,94018.03
2022-12-03T19:38:58.555Z,94015.03
2022-12-03T19:41:24.979Z,94016.44
2022-12-03T19:43:51.415Z,94028.47
2022-12-03T19:46:17.957Z,94014.59
2022-12-03T19:48:44.457Z,94021.22
2022-12-03T19:51:33.187Z,94005.16
2022-12-03T19:53:57.263Z,94015.16
2022-12-03T19:56:23.660Z,94007.22
2022-12-03T19:58:50.071Z,94006.38
2022-12-03T20:01:16.583Z,94012.81
2022-12-03T20:03:43.007Z,93999.88
2022-12-03T20:06:09.492Z,94002.25
2022-12-03T20:08:35.904Z,94009.81
2022-12-03T20:11:02.418Z,94022.59
2022-12-03T20:13:33.527Z,94014.34
2022-12-03T20:16:02.898Z,94015.69
2022-12-03T20:18:29.421Z,94017.31
2022-12-03T20:20:55.875Z,94015.53
2022-12-03T20:23:22.278Z,94017.19
2022-12-03T20:25:48.681Z,94010.41
2022-12-03T20:28:15.100Z,94008.78
2022-12-03T20:30:41.554Z,94003.81
2022-12-03T20:33:07.950Z,94010.69
2022-12-03T20:35:34.351Z,94006.69
2022-12-03T20:38:00.788Z,94012.00
2022-12-03T20:40:27.254Z,94011.59
2022-12-03T20:42:53.721Z,94013.19
2022-12-03T20:45:20.159Z,94009.34
2022-12-03T20:47:46.605Z,94008.22
2022-12-03T20:50:13.028Z,94016.59
2022-12-03T20:52:45.257Z,94008.59
2022-12-03T20:55:19.251Z,94002.28
2022-12-03T20:57:45.727Z,93996.34
2022-12-03T21:00:12.142Z,94000.16
2022-12-03T21:02:38.600Z,93989.91
2022-12-03T21:05:05.063Z,93995.16
2022-12-03T21:07:31.533Z,93997.78
2022-12-03T21:09:58.140Z,94010.69
2022-12-03T21:12:24.591Z,94010.94
2022-12-03T21:14:51.027Z,94012.59
2022-12-03T21:17:17.463Z,94016.69
2022-12-03T21:19:43.923Z,94002.66
2022-12-03T21:22:10.333Z,94009.28
2022-12-03T21:24:36.747Z,94005.72
2022-12-03T21:27:03.199Z,93999.06
2022-12-03T21:29:29.608Z,93996.81
2022-12-03T21:31:56.039Z,94004.22
2022-12-03T21:34:22.469Z,94001.66
2022-12-03T21:36:48.897Z,94000.69
2022-12-03T21:39:15.402Z,94009.50
2022-12-03T21:41:41.947Z,94014.13
2022-12-03T21:44:28.347Z,94026.22
2022-12-03T21:47:12.342Z,94030.19
2022-12-03T21:49:40.320Z,94029.81
2022-12-03T21:52:06.763Z,94030.31
2022-12-03T21:54:33.214Z,94026.63
2022-12-03T21:56:59.677Z,94033.19
2022-12-03T21:59:26.120Z,94034.16
2022-12-03T22:01:52.626Z,94035.34
2022-12-03T22:04:19.114Z,94036.41
2022-12-03T22:06:45.534Z,94038.66
2022-12-03T22:09:12.028Z,94034.38
2022-12-03T22:11:38.443Z,94037.38
2022-12-03T22:14:04.904Z,94022.47
2022-12-03T22:16:31.412Z,94030.69
2022-12-03T22:18:57.883Z,94027.47
2022-12-03T22:21:24.334Z,94030.66
2022-12-03T22:23:50.909Z,94037.31
2022-12-03T22:26:17.317Z,94031.19
2022-12-03T22:28:43.745Z,94040.16
2022-12-03T22:31:10.281Z,94041.69
2022-12-03T22:33:36.781Z,94040.75
2022-12-03T22:36:03.301Z,94044.38
2022-12-03T22:38:29.768Z,94039.53
2022-12-03T22:40:56.195Z,94039.94
2022-12-03T22:43:22.620Z,94040.22
2022-12-03T22:45:49.058Z,94031.44
2022-12-03T22:48:15.493Z,94014.34
2022-12-03T22:50:41.898Z,94018.16
2022-12-03T22:53:08.339Z,94007.38
2022-12-03T22:55:34.764Z,94005.09
2022-12-03T22:58:01.250Z,94002.34
2022-12-03T23:00:27.696Z,94001.19
2022-12-03T23:02:54.156Z,94005.78
2022-12-03T23:05:20.604Z,94000.69
2022-12-03T23:07:47.086Z,93998.44
2022-12-03T23:10:13.559Z,93994.31
2022-12-03T23:12:39.984Z,93991.94
2022-12-03T23:15:08.574Z,93987.69
2022-12-03T23:17:35.013Z,93986.56
2022-12-03T23:20:01.472Z,93981.06
2022-12-03T23:22:27.974Z,93978.88
2022-12-03T23:24:54.437Z,93975.66
2022-12-03T23:27:20.875Z,93980.22
2022-12-03T23:29:47.312Z,93972.91
2022-12-03T23:32:13.730Z,93975.00
2022-12-03T23:34:40.212Z,93968.78
2022-12-03T23:37:06.699Z,93971.25
2022-12-03T23:39:33.117Z,93970.28
2022-12-03T23:41:59.566Z,93976.03
2022-12-03T23:44:26.051Z,93977.81
2022-12-03T23:46:52.532Z,93975.75
2022-12-03T23:49:18.997Z,93978.38
2022-12-03T23:51:45.429Z,93977.53
2022-12-03T23:54:11.880Z,93979.56
2022-12-03T23:56:38.303Z,93988.13
2022-12-03T23:59:04.702Z,93977.09
